Portada
METAR-TAF:

METAR-TAF

Aeroports :

Novosibirsk, Rússia

latitud: 55-01N, longitud: 082-38E, altitud: 111 m

Observació

L'informe es va fer fa 15 minuts, a les 01:30 UTC
Vent 16 kt del Sud-Oest
Temperatura -8°C
Humitat 85%
Pressió 1021 hPa
Visibilitat 10 km o més
Cel ennuvolat a una alçada de 1300 ft
torb baixa de neu

METAR: UNNT 300130Z 23008MPS 9999 DRSN BKN013 M08/M10 Q1021 R25/820250 R34/////// NOSIG RMK QFE756/1008

Hora: 08:45 (01:45 UTC)

Pronòstic

L'informe es va fer fa 2 hores i 45 minuts, a les 23:00 UTC
Pronòstic vàlid del 30 a les 00 UTC al 30 a les 24 UTC
Vent 16 kt del Sud-Oest amb ràfegues de 29 kt
Visibilitat: 8000 m
Cel ennuvolat a una alçada de 1600 ft, Cumulonimbus.
xàfecs de neu, torb baixa de neu
Evolucionant progressivament
l' 30 a les 11 UTC al 30 a les 13 UTC
Vent 6 kt del Sud/Sud-Oest

TAF: UNNT 292300Z 3000/3024 22008G15MPS 8000 -SHSN DRSN BKN016CB BECMG 3011/3013 20003MPS

Observacions i pronòstics meteorològics de més de 4000 aeroports (METAR i TAF).

Les estacions disponibles són els punts grocs i vermells al mapa.

Posi el ratolí al punt desitjat per veure el nom de l'estació.

Feu clic per veure les observacions i els pronòstics meteorològics.

Per canviar el mapa: feu clic els botons verds amb una creu de color negre per apropar; al botó verd amb un guió per allunyar la imatge; o en les fletxes verdes per a mapes adjacents.


METAR-TAF: